Flugplatz - Wetter - Augsburg

[Quelle: ADDS]
METAR
EDMA 260550Z 30003KT 9999 OVC021 10/09 Q1010 =
EDMA 260500Z 2606/2615 25007KT 9999 FEW010 OVC020
TAF
EDMA 241700Z 2418/2503 VRB02KT 9999 FEW015 BKN040 PROB30 TEMPO 2418/2419 4000 SHRA BKN020TCU BECMG 2421/2423 2000 BCFG BECMG 2423/2502 0500 FG VV001 =
SR / SS: 05:09 / 17:08 UTC (Augsburg 2022-09-26)

Flugplatz - Wetter - Laupheim

[Quelle: ADDS]
METAR
ETHL 131020Z 25004KT 9999 SCT140 SCT240 22/14 Q1013 BLU+BLU+ BECMG BLU =
ETHL 130422Z 1305/1314 23003KT 8000 NSW BKN300 TEMPO 1305/1308 24003KT 3000 BR SCT300 PROB30 1305/1308 VRB02KT 0500 FG VV001 / KT
TAF
ETHL 130422Z 1305/1314 23003KT 8000 NSW BKN300 TEMPO 1305/1308 24003KT 3000 BR SCT300 PROB30 1305/1308 VRB02KT 0500 FG VV001 / KT =
SR / SS: 05:14 / 17:12 UTC (Laupheim 2022-09-26)

Flugplatz - Wetter - Memmingen

[Quelle: ADDS]
METAR
EDJA 130620Z 20004KT CAVOK 12/10 Q1014 =
EDJA 130500Z 1306/1315 23006KT CAVOK
TAF
EDJA 260500Z 2606/2615 23005KT 9999 FEW015 BKN025 TEMPO 2606/2608 RA BKN008 BECMG 2608/2611 24010KT =
SR / SS: 05:11 / 17:09 UTC (Memmingen 2022-09-26)

Flugplatz - Wetter - Neuburg/Donau

[Quelle: ADDS]
METAR
ETSN 131020Z VRB02KT 9999 BKN130 BKN300 20/14 Q1013 BLU BLU =
ETSN 130420Z 1305/1314 VRB03KT 0500 FG BKN001 BECMG 1307/1308 23003KT 3000 BR BKN005 BECMG 1308/1310 25005KT 9999 NSW FEW010 BKN120 BY ETGL
TAF
ETSN 241302Z 2414/2423 VRB02KT 9999 NSW FEW015 BKN080 TEMPO 2414/2417 VRB03KT 5000 RA BKN015 BKN050 PROB30 2414/2417 10005KT 4000 SHRA BKN010TCU BECMG 2420/2422 VRB02KT 3000 BCFG SCT001 TEMPO 2422/2423 VRB01KT 0500 FG VV001 BY ETGL =
SR / SS: 05:07 / 17:05 UTC (Neuburg 2022-09-26)

Flugplatz - Wetter - Stuttgart

[Quelle: ADDS]
METAR
EDDS 131020Z AUTO 22002KT CAVOK 23/13 Q1012 NOSIG =
EDDS 130500Z 1306/1406 VRB03KT CAVOK TEMPO 1310/1316 06005KT PROB30 TEMPO 1402/1406 4000 TSRA BKN040CB BECMG 1404/1406 20005KT
TAF
EDDS 122300Z 1300/1324 VRB03KT CAVOK TEMPO 1310/1316 06005KT =
SR / SS: 05:15 / 17:13 UTC (Stuttgart 2022-09-26)

Flugplatz - Wetter - Niederstetten

[Quelle: ADDS]
METAR
ETHN 131020Z 19005KT 9999 SCT080 BKN100 21/12 Q1012 BLU BLU =
ETHN 130719Z 1308/1317 21005KT 9999 NSW BKN120 BKN300
TAF
SR / SS: 05:14 / 17:12 UTC (Niederstetten 2022-09-26)